createdAt,value
2019-03-26T00:01:22.198Z,21.75
2019-03-26T00:06:26.920Z,21.76
2019-03-26T00:11:31.648Z,21.76
2019-03-26T00:16:36.206Z,21.74
2019-03-26T00:21:40.861Z,21.76
2019-03-26T00:26:45.401Z,21.74
2019-03-26T00:31:50.113Z,21.72
2019-03-26T00:36:54.666Z,21.69
2019-03-26T00:41:59.411Z,21.65
2019-03-26T00:47:03.986Z,21.60
2019-03-26T00:52:08.618Z,21.56
2019-03-26T00:57:13.269Z,21.54
2019-03-26T01:02:17.835Z,21.49
2019-03-26T01:07:22.379Z,21.49
2019-03-26T01:12:26.923Z,21.45
2019-03-26T01:17:31.570Z,21.45
2019-03-26T01:22:36.154Z,21.43
2019-03-26T01:27:40.749Z,21.36
2019-03-26T01:32:45.331Z,21.32
2019-03-26T01:37:49.893Z,21.23
2019-03-26T01:42:54.636Z,21.26
2019-03-26T01:47:59.274Z,21.24
2019-03-26T01:53:03.936Z,21.21
2019-03-26T01:58:08.638Z,21.17
2019-03-26T02:03:13.274Z,21.17
2019-03-26T02:08:17.934Z,21.12
2019-03-26T02:13:22.507Z,21.06
2019-03-26T02:18:27.155Z,21.04
2019-03-26T02:23:31.745Z,21.03
2019-03-26T02:28:36.309Z,21.02
2019-03-26T02:33:40.957Z,20.98
2019-03-26T02:38:45.528Z,20.97
2019-03-26T02:43:50.186Z,20.95
2019-03-26T02:48:54.845Z,20.92
2019-03-26T02:53:59.430Z,20.91
2019-03-26T02:59:04.112Z,20.91
2019-03-26T03:04:08.796Z,20.87
2019-03-26T03:09:13.394Z,20.85
2019-03-26T03:14:18.038Z,20.85
2019-03-26T03:19:22.683Z,20.81
2019-03-26T03:24:27.289Z,20.80
2019-03-26T03:29:32.088Z,20.79
2019-03-26T03:34:36.758Z,20.79
2019-03-26T03:39:41.398Z,20.76
2019-03-26T03:44:46.104Z,20.75
2019-03-26T03:49:51.085Z,20.74
2019-03-26T03:54:55.940Z,20.72
2019-03-26T04:00:02.812Z,20.70
2019-03-26T04:05:08.082Z,20.68
2019-03-26T04:10:12.753Z,20.68
2019-03-26T04:15:17.366Z,20.66
2019-03-26T04:20:22.037Z,20.64
2019-03-26T04:25:26.721Z,20.55
2019-03-26T04:30:32.664Z,20.61
2019-03-26T04:35:37.242Z,20.61
2019-03-26T04:40:41.912Z,20.61
2019-03-26T04:45:46.478Z,20.63
2019-03-26T04:50:51.130Z,20.57
2019-03-26T04:55:55.780Z,20.56
2019-03-26T05:01:00.526Z,20.56
2019-03-26T05:06:05.081Z,20.42
2019-03-26T05:11:09.640Z,20.42
2019-03-26T05:16:14.207Z,20.46
2019-03-26T05:21:18.775Z,20.45
2019-03-26T05:26:23.338Z,20.42
2019-03-26T05:31:27.896Z,20.41
2019-03-26T05:36:32.445Z,20.41
2019-03-26T05:41:37.016Z,20.37
2019-03-26T05:46:41.671Z,20.35
2019-03-26T05:51:46.330Z,20.33
2019-03-26T05:56:50.891Z,20.32
2019-03-26T06:01:55.457Z,20.30
2019-03-26T06:07:05.153Z,20.28
2019-03-26T06:12:06.395Z,20.26
2019-03-26T06:17:11.045Z,20.26
2019-03-26T06:22:15.611Z,20.26
2019-03-26T06:27:20.171Z,20.26
2019-03-26T06:32:24.900Z,20.25
2019-03-26T06:37:29.511Z,20.24
2019-03-26T06:42:34.060Z,20.23
2019-03-26T06:47:38.777Z,20.22
2019-03-26T06:52:43.330Z,20.21
2019-03-26T06:57:48.062Z,20.21
2019-03-26T07:02:52.629Z,20.21
2019-03-26T07:07:57.265Z,20.19
2019-03-26T07:13:01.834Z,20.19
2019-03-26T07:18:06.557Z,20.17
2019-03-26T07:23:11.191Z,20.17
2019-03-26T07:28:15.832Z,20.16
2019-03-26T07:33:20.472Z,20.14
2019-03-26T07:38:25.135Z,20.14
2019-03-26T07:43:29.766Z,20.12
2019-03-26T07:48:34.326Z,20.12
2019-03-26T07:53:38.939Z,19.29
2019-03-26T07:58:43.575Z,19.26
2019-03-26T08:03:48.232Z,17.07
2019-03-26T08:08:52.854Z,16.33
2019-03-26T08:13:57.469Z,15.96
2019-03-26T08:19:02.169Z,17.68
2019-03-26T08:24:06.873Z,18.44
2019-03-26T08:29:11.441Z,18.44
2019-03-26T08:34:16.078Z,18.93
2019-03-26T08:39:20.630Z,19.03
2019-03-26T08:44:25.174Z,19.02
2019-03-26T08:49:30.907Z,19.15
2019-03-26T08:54:35.751Z,19.22
2019-03-26T08:59:40.458Z,19.56
2019-03-26T09:04:45.011Z,20.05
2019-03-26T09:09:49.562Z,20.33
2019-03-26T09:14:54.738Z,20.33
2019-03-26T09:19:59.300Z,20.44
2019-03-26T09:25:04.775Z,20.49
2019-03-26T09:30:10.739Z,20.49
2019-03-26T09:35:17.334Z,20.47
2019-03-26T09:40:21.938Z,20.42
2019-03-26T09:45:26.506Z,20.38
2019-03-26T09:50:35.494Z,20.34
2019-03-26T09:55:40.052Z,20.31
2019-03-26T10:00:44.922Z,20.17
2019-03-26T10:05:49.520Z,20.22
2019-03-26T10:10:54.162Z,20.21
2019-03-26T10:15:58.738Z,20.17
2019-03-26T10:21:03.379Z,20.17
2019-03-26T10:26:07.927Z,20.22
2019-03-26T10:31:12.561Z,20.18
2019-03-26T10:36:17.182Z,20.16
2019-03-26T10:41:21.740Z,20.14
2019-03-26T10:46:26.285Z,20.14
2019-03-26T10:51:30.828Z,20.11
2019-03-26T10:56:35.464Z,20.10
2019-03-26T11:01:40.037Z,20.10
2019-03-26T11:06:44.702Z,20.13
2019-03-26T11:11:49.325Z,20.17
2019-03-26T11:16:54.049Z,20.15
2019-03-26T11:21:58.646Z,20.11
2019-03-26T11:27:03.271Z,20.09
2019-03-26T11:32:07.975Z,20.07
2019-03-26T11:37:12.676Z,19.98
2019-03-26T11:42:17.383Z,20.05
2019-03-26T11:47:21.934Z,20.04
2019-03-26T11:52:26.488Z,20.07
2019-03-26T11:57:31.033Z,20.01
2019-03-26T12:02:35.856Z,20.11
2019-03-26T12:07:42.783Z,20.11
2019-03-26T12:12:46.733Z,20.14
2019-03-26T12:17:51.338Z,20.14
2019-03-26T12:22:55.896Z,20.16
2019-03-26T12:28:00.431Z,20.06
2019-03-26T12:33:05.532Z,20.05
2019-03-26T12:38:17.918Z,20.14
2019-03-26T12:43:22.643Z,20.16
2019-03-26T12:48:27.331Z,20.11
2019-03-26T12:53:31.878Z,15.18
2019-03-26T12:58:36.833Z,17.49
2019-03-26T13:03:41.464Z,17.49
2019-03-26T13:08:46.067Z,20.03
2019-03-26T13:13:50.886Z,20.32
2019-03-26T13:18:55.421Z,20.61
2019-03-26T13:23:59.964Z,20.74
2019-03-26T13:29:04.588Z,20.74
2019-03-26T13:34:09.232Z,20.64
2019-03-26T13:39:13.790Z,20.52
2019-03-26T13:44:18.331Z,20.57
2019-03-26T13:49:22.992Z,20.54
2019-03-26T13:54:27.517Z,20.42
2019-03-26T13:59:32.059Z,20.45
2019-03-26T14:04:36.621Z,20.42
2019-03-26T14:09:41.241Z,20.31
2019-03-26T14:14:45.777Z,20.25
2019-03-26T14:19:50.314Z,20.22
2019-03-26T14:24:55.136Z,20.27
2019-03-26T14:29:59.688Z,20.61
2019-03-26T14:35:04.674Z,20.67
2019-03-26T14:40:10.193Z,20.67
2019-03-26T14:45:15.029Z,20.66
2019-03-26T14:50:20.009Z,20.61
2019-03-26T14:55:24.638Z,20.49
2019-03-26T15:00:29.602Z,20.43
2019-03-26T15:05:34.533Z,20.37
2019-03-26T15:10:39.190Z,20.31
2019-03-26T15:15:43.742Z,20.36
2019-03-26T15:20:48.315Z,20.28
2019-03-26T15:25:52.875Z,20.37
2019-03-26T15:30:57.470Z,20.40
2019-03-26T15:36:02.386Z,20.42
2019-03-26T15:41:07.040Z,20.43
2019-03-26T15:46:11.695Z,20.46
2019-03-26T15:51:16.396Z,20.49
2019-03-26T15:56:21.030Z,20.51
2019-03-26T16:01:25.660Z,20.52
2019-03-26T16:06:30.255Z,20.54
2019-03-26T16:11:36.255Z,20.54
2019-03-26T16:16:41.195Z,20.57
2019-03-26T16:21:46.044Z,20.62
2019-03-26T16:26:50.751Z,20.62
2019-03-26T16:31:55.324Z,20.64
2019-03-26T16:37:00.215Z,20.64
2019-03-26T16:42:05.033Z,20.65
2019-03-26T16:47:09.604Z,20.75
2019-03-26T16:52:14.346Z,20.76
2019-03-26T16:57:18.965Z,20.71
2019-03-26T17:02:23.666Z,20.75
2019-03-26T17:07:28.416Z,20.76
2019-03-26T17:12:33.018Z,20.79
2019-03-26T17:17:37.659Z,20.79
2019-03-26T17:22:42.242Z,20.91
2019-03-26T17:27:46.963Z,20.91
2019-03-26T17:32:51.728Z,21.49
2019-03-26T17:37:59.978Z,21.83
2019-03-26T17:43:02.621Z,21.97
2019-03-26T17:48:07.273Z,22.25
2019-03-26T17:53:11.836Z,22.39
2019-03-26T17:58:16.446Z,22.34
2019-03-26T18:03:26.561Z,22.34
2019-03-26T18:08:27.424Z,22.20
2019-03-26T18:13:32.046Z,22.20
2019-03-26T18:18:36.589Z,22.02
2019-03-26T18:23:42.457Z,22.14
2019-03-26T18:28:47.093Z,22.30
2019-03-26T18:33:51.664Z,22.40
2019-03-26T18:38:56.274Z,22.52
2019-03-26T18:44:00.959Z,22.44
2019-03-26T18:49:05.622Z,22.44
2019-03-26T18:54:10.256Z,22.34
2019-03-26T18:59:14.935Z,22.26
2019-03-26T19:04:19.598Z,22.26
2019-03-26T19:09:24.255Z,22.33
2019-03-26T19:14:28.900Z,22.51
2019-03-26T19:19:33.438Z,22.58
2019-03-26T19:24:38.075Z,22.66
2019-03-26T19:29:42.719Z,22.54
2019-03-26T19:34:47.293Z,22.34
2019-03-26T19:39:51.934Z,22.48
2019-03-26T19:44:56.648Z,22.29
2019-03-26T19:50:01.314Z,22.16
2019-03-26T19:55:07.509Z,22.16
2019-03-26T20:00:14.163Z,22.18
2019-03-26T20:05:18.810Z,22.33
2019-03-26T20:10:23.756Z,22.58
2019-03-26T20:15:28.460Z,22.53
2019-03-26T20:20:33.059Z,22.36
2019-03-26T20:25:37.764Z,22.37
2019-03-26T20:30:42.321Z,22.25
2019-03-26T20:35:46.890Z,22.19
2019-03-26T20:40:51.430Z,22.13
2019-03-26T20:45:56.083Z,22.07
2019-03-26T20:51:00.659Z,22.01
2019-03-26T20:56:05.278Z,21.95
2019-03-26T21:01:09.823Z,21.88
2019-03-26T21:06:14.380Z,21.85
2019-03-26T21:11:18.931Z,21.79
2019-03-26T21:16:23.517Z,21.74
2019-03-26T21:21:28.301Z,21.73
2019-03-26T21:26:33.083Z,21.83
2019-03-26T21:31:37.809Z,21.84
2019-03-26T21:36:42.504Z,21.81
2019-03-26T21:41:47.145Z,21.78
2019-03-26T21:46:51.754Z,21.76
2019-03-26T21:51:56.504Z,21.75
2019-03-26T21:57:01.126Z,21.72
2019-03-26T22:02:06.076Z,21.71
2019-03-26T22:07:10.911Z,21.72
2019-03-26T22:12:15.632Z,21.70
2019-03-26T22:17:20.258Z,21.70
2019-03-26T22:22:24.905Z,21.65
2019-03-26T22:27:29.668Z,21.60
2019-03-26T22:32:34.296Z,21.58
2019-03-26T22:37:39.069Z,21.58
2019-03-26T22:42:43.709Z,21.58
2019-03-26T22:47:48.477Z,21.55
2019-03-26T22:52:54.213Z,21.52
2019-03-26T22:57:58.961Z,21.54
2019-03-26T23:03:03.993Z,21.54
2019-03-26T23:08:08.810Z,21.52
2019-03-26T23:13:13.480Z,21.54
2019-03-26T23:18:18.285Z,21.53
2019-03-26T23:23:22.968Z,21.54
2019-03-26T23:28:27.577Z,21.54
2019-03-26T23:33:32.369Z,21.52
2019-03-26T23:38:37.050Z,21.51
2019-03-26T23:43:41.746Z,21.52
2019-03-26T23:48:46.539Z,21.52
2019-03-26T23:53:51.291Z,21.53
2019-03-26T23:58:55.986Z,21.54
